sensor_id;sensor_type;location;lat;lon;timestamp;temperature;humidity
45008;DHT22;30743;52.008;5.644;2023-04-25T00:02:24;12.30;99.90
45008;DHT22;30743;52.008;5.644;2023-04-25T00:04:50;12.20;99.90
45008;DHT22;30743;52.008;5.644;2023-04-25T00:07:16;12.10;99.90
45008;DHT22;30743;52.008;5.644;2023-04-25T00:09:42;12.00;99.90
45008;DHT22;30743;52.008;5.644;2023-04-25T00:12:08;11.90;99.90
45008;DHT22;30743;52.008;5.644;2023-04-25T00:14:34;11.90;99.90
45008;DHT22;30743;52.008;5.644;2023-04-25T00:17:00;12.00;99.90
45008;DHT22;30743;52.008;5.644;2023-04-25T00:19:26;12.00;99.90
45008;DHT22;30743;52.008;5.644;2023-04-25T00:21:57;12.00;99.90
45008;DHT22;30743;52.008;5.644;2023-04-25T00:24:22;12.00;99.90
45008;DHT22;30743;52.008;5.644;2023-04-25T00:26:48;12.00;99.90
45008;DHT22;30743;52.008;5.644;2023-04-25T00:29:14;12.00;99.90
45008;DHT22;30743;52.008;5.644;2023-04-25T00:31:39;12.00;99.90
45008;DHT22;30743;52.008;5.644;2023-04-25T00:34:06;12.00;99.90
45008;DHT22;30743;52.008;5.644;2023-04-25T00:36:32;12.00;99.90
45008;DHT22;30743;52.008;5.644;2023-04-25T00:38:57;11.90;99.90
45008;DHT22;30743;52.008;5.644;2023-04-25T00:41:25;11.80;99.90
45008;DHT22;30743;52.008;5.644;2023-04-25T00:43:51;11.80;99.90
45008;DHT22;30743;52.008;5.644;2023-04-25T00:46:17;11.80;99.90
45008;DHT22;30743;52.008;5.644;2023-04-25T00:48:42;11.80;99.90
45008;DHT22;30743;52.008;5.644;2023-04-25T00:51:09;11.70;99.90
45008;DHT22;30743;52.008;5.644;2023-04-25T00:53:37;11.70;99.90
45008;DHT22;30743;52.008;5.644;2023-04-25T00:56:02;11.70;99.90
45008;DHT22;30743;52.008;5.644;2023-04-25T00:58:28;11.60;99.90
45008;DHT22;30743;52.008;5.644;2023-04-25T01:00:53;11.60;99.90
45008;DHT22;30743;52.008;5.644;2023-04-25T01:03:20;11.60;99.90
45008;DHT22;30743;52.008;5.644;2023-04-25T01:05:46;11.40;99.90
45008;DHT22;30743;52.008;5.644;2023-04-25T01:08:13;11.50;99.90
45008;DHT22;30743;52.008;5.644;2023-04-25T01:10:39;11.40;99.90
45008;DHT22;30743;52.008;5.644;2023-04-25T01:13:05;11.50;99.90
45008;DHT22;30743;52.008;5.644;2023-04-25T01:15:30;11.50;99.90
45008;DHT22;30743;52.008;5.644;2023-04-25T01:17:57;11.60;99.90
45008;DHT22;30743;52.008;5.644;2023-04-25T01:20:24;11.40;99.90
45008;DHT22;30743;52.008;5.644;2023-04-25T01:22:50;11.60;99.90
45008;DHT22;30743;52.008;5.644;2023-04-25T01:25:17;11.70;99.90
45008;DHT22;30743;52.008;5.644;2023-04-25T01:27:42;11.70;99.90
45008;DHT22;30743;52.008;5.644;2023-04-25T01:30:09;11.80;99.90
45008;DHT22;30743;52.008;5.644;2023-04-25T01:32:35;11.90;99.90
45008;DHT22;30743;52.008;5.644;2023-04-25T01:35:08;11.90;99.90
45008;DHT22;30743;52.008;5.644;2023-04-25T01:37:41;12.00;99.90
45008;DHT22;30743;52.008;5.644;2023-04-25T01:40:08;12.00;99.90
45008;DHT22;30743;52.008;5.644;2023-04-25T01:42:36;12.10;99.90
45008;DHT22;30743;52.008;5.644;2023-04-25T01:45:02;12.10;99.90
45008;DHT22;30743;52.008;5.644;2023-04-25T01:47:28;12.10;99.90
45008;DHT22;30743;52.008;5.644;2023-04-25T01:49:54;12.10;99.90
45008;DHT22;30743;52.008;5.644;2023-04-25T01:52:20;12.00;99.90
45008;DHT22;30743;52.008;5.644;2023-04-25T01:54:45;12.10;99.90
45008;DHT22;30743;52.008;5.644;2023-04-25T01:57:12;12.20;99.90
45008;DHT22;30743;52.008;5.644;2023-04-25T01:59:37;12.20;99.90
45008;DHT22;30743;52.008;5.644;2023-04-25T02:02:03;12.20;99.90
45008;DHT22;30743;52.008;5.644;2023-04-25T02:04:32;12.20;99.90
45008;DHT22;30743;52.008;5.644;2023-04-25T02:06:58;12.20;99.90
45008;DHT22;30743;52.008;5.644;2023-04-25T02:09:23;12.20;99.90
45008;DHT22;30743;52.008;5.644;2023-04-25T02:11:49;12.10;99.90
45008;DHT22;30743;52.008;5.644;2023-04-25T02:14:15;12.10;99.90
45008;DHT22;30743;52.008;5.644;2023-04-25T02:16:41;12.10;99.90
45008;DHT22;30743;52.008;5.644;2023-04-25T02:19:09;12.00;99.90
45008;DHT22;30743;52.008;5.644;2023-04-25T02:21:35;12.00;99.90
45008;DHT22;30743;52.008;5.644;2023-04-25T02:24:01;12.00;99.90
45008;DHT22;30743;52.008;5.644;2023-04-25T02:26:27;12.00;99.90
45008;DHT22;30743;52.008;5.644;2023-04-25T02:28:52;12.00;99.90
45008;DHT22;30743;52.008;5.644;2023-04-25T02:31:18;11.90;99.90
45008;DHT22;30743;52.008;5.644;2023-04-25T02:33:44;11.90;99.90
45008;DHT22;30743;52.008;5.644;2023-04-25T02:36:10;11.70;99.90
45008;DHT22;30743;52.008;5.644;2023-04-25T02:38:35;11.70;99.90
45008;DHT22;30743;52.008;5.644;2023-04-25T02:41:01;11.70;99.90
45008;DHT22;30743;52.008;5.644;2023-04-25T02:43:26;11.70;99.90
45008;DHT22;30743;52.008;5.644;2023-04-25T02:45:52;11.60;99.90
45008;DHT22;30743;52.008;5.644;2023-04-25T02:48:17;11.60;99.90
45008;DHT22;30743;52.008;5.644;2023-04-25T02:50:43;11.40;99.90
45008;DHT22;30743;52.008;5.644;2023-04-25T02:53:08;11.30;99.90
45008;DHT22;30743;52.008;5.644;2023-04-25T02:55:34;11.30;99.90
45008;DHT22;30743;52.008;5.644;2023-04-25T02:57:59;11.10;99.90
45008;DHT22;30743;52.008;5.644;2023-04-25T03:00:25;11.20;99.90
45008;DHT22;30743;52.008;5.644;2023-04-25T03:02:51;11.00;99.90
45008;DHT22;30743;52.008;5.644;2023-04-25T03:05:17;11.00;99.90
45008;DHT22;30743;52.008;5.644;2023-04-25T03:07:42;11.00;99.90
45008;DHT22;30743;52.008;5.644;2023-04-25T03:10:09;10.90;99.90
45008;DHT22;30743;52.008;5.644;2023-04-25T03:12:35;11.00;99.90
45008;DHT22;30743;52.008;5.644;2023-04-25T03:15:00;11.00;99.90
45008;DHT22;30743;52.008;5.644;2023-04-25T03:17:26;10.90;99.90
45008;DHT22;30743;52.008;5.644;2023-04-25T03:19:52;10.90;99.90
45008;DHT22;30743;52.008;5.644;2023-04-25T03:22:17;10.90;99.90
45008;DHT22;30743;52.008;5.644;2023-04-25T03:24:43;10.80;99.90
45008;DHT22;30743;52.008;5.644;2023-04-25T03:27:08;10.80;99.90
45008;DHT22;30743;52.008;5.644;2023-04-25T03:29:34;10.90;99.90
45008;DHT22;30743;52.008;5.644;2023-04-25T03:31:59;10.90;99.90
45008;DHT22;30743;52.008;5.644;2023-04-25T03:34:25;11.00;99.90
45008;DHT22;30743;52.008;5.644;2023-04-25T03:36:51;11.10;99.90
45008;DHT22;30743;52.008;5.644;2023-04-25T03:39:16;11.10;99.90
45008;DHT22;30743;52.008;5.644;2023-04-25T03:41:42;11.20;99.90
45008;DHT22;30743;52.008;5.644;2023-04-25T03:44:07;11.10;99.90
45008;DHT22;30743;52.008;5.644;2023-04-25T03:46:33;11.20;99.90
45008;DHT22;30743;52.008;5.644;2023-04-25T03:48:58;11.20;99.90
45008;DHT22;30743;52.008;5.644;2023-04-25T03:51:24;11.20;99.90
45008;DHT22;30743;52.008;5.644;2023-04-25T03:53:51;11.20;99.90
45008;DHT22;30743;52.008;5.644;2023-04-25T03:56:17;11.00;99.90
45008;DHT22;30743;52.008;5.644;2023-04-25T03:58:43;11.20;99.90
45008;DHT22;30743;52.008;5.644;2023-04-25T04:01:09;11.20;99.90
45008;DHT22;30743;52.008;5.644;2023-04-25T04:03:35;11.20;99.90
45008;DHT22;30743;52.008;5.644;2023-04-25T04:06:05;11.10;99.90
45008;DHT22;30743;52.008;5.644;2023-04-25T04:08:34;11.10;99.90
45008;DHT22;30743;52.008;5.644;2023-04-25T04:11:00;11.10;99.90
45008;DHT22;30743;52.008;5.644;2023-04-25T04:13:26;11.10;99.90
45008;DHT22;30743;52.008;5.644;2023-04-25T04:15:52;11.10;99.90
45008;DHT22;30743;52.008;5.644;2023-04-25T04:18:18;11.00;99.90
45008;DHT22;30743;52.008;5.644;2023-04-25T04:20:43;11.00;99.90
45008;DHT22;30743;52.008;5.644;2023-04-25T04:23:09;11.00;99.90
45008;DHT22;30743;52.008;5.644;2023-04-25T04:25:34;11.00;99.90
45008;DHT22;30743;52.008;5.644;2023-04-25T04:28:00;11.00;99.90
45008;DHT22;30743;52.008;5.644;2023-04-25T04:30:26;11.20;99.90
45008;DHT22;30743;52.008;5.644;2023-04-25T04:32:55;11.20;99.90
45008;DHT22;30743;52.008;5.644;2023-04-25T04:35:22;11.10;99.90
45008;DHT22;30743;52.008;5.644;2023-04-25T04:37:48;11.10;99.90
45008;DHT22;30743;52.008;5.644;2023-04-25T04:40:14;11.10;99.90
45008;DHT22;30743;52.008;5.644;2023-04-25T04:42:41;11.10;99.90
45008;DHT22;30743;52.008;5.644;2023-04-25T04:45:08;11.20;99.90
45008;DHT22;30743;52.008;5.644;2023-04-25T04:47:34;11.20;99.90
45008;DHT22;30743;52.008;5.644;2023-04-25T04:50:02;11.10;99.90
45008;DHT22;30743;52.008;5.644;2023-04-25T04:52:28;11.10;99.90
45008;DHT22;30743;52.008;5.644;2023-04-25T04:54:53;11.10;99.90
45008;DHT22;30743;52.008;5.644;2023-04-25T04:57:19;11.10;99.90
45008;DHT22;30743;52.008;5.644;2023-04-25T04:59:44;11.10;99.90
45008;DHT22;30743;52.008;5.644;2023-04-25T05:02:11;11.10;99.90
45008;DHT22;30743;52.008;5.644;2023-04-25T05:04:36;11.20;99.90
45008;DHT22;30743;52.008;5.644;2023-04-25T05:07:02;11.30;99.90
45008;DHT22;30743;52.008;5.644;2023-04-25T05:09:27;11.40;99.90
45008;DHT22;30743;52.008;5.644;2023-04-25T05:11:53;11.40;99.90
45008;DHT22;30743;52.008;5.644;2023-04-25T05:14:18;11.40;99.90
45008;DHT22;30743;52.008;5.644;2023-04-25T05:16:44;11.40;99.90
45008;DHT22;30743;52.008;5.644;2023-04-25T05:19:09;11.50;99.90
45008;DHT22;30743;52.008;5.644;2023-04-25T05:21:35;11.50;99.90
45008;DHT22;30743;52.008;5.644;2023-04-25T05:24:01;11.70;99.90
45008;DHT22;30743;52.008;5.644;2023-04-25T05:26:27;11.70;99.90
45008;DHT22;30743;52.008;5.644;2023-04-25T05:28:59;11.80;99.90
45008;DHT22;30743;52.008;5.644;2023-04-25T05:31:25;11.70;99.90
45008;DHT22;30743;52.008;5.644;2023-04-25T05:33:51;11.80;99.90
45008;DHT22;30743;52.008;5.644;2023-04-25T05:36:18;11.90;99.90
45008;DHT22;30743;52.008;5.644;2023-04-25T05:38:44;12.10;99.90
45008;DHT22;30743;52.008;5.644;2023-04-25T05:41:09;11.80;99.90
45008;DHT22;30743;52.008;5.644;2023-04-25T05:43:35;11.80;99.90
45008;DHT22;30743;52.008;5.644;2023-04-25T05:46:01;12.00;99.90
45008;DHT22;30743;52.008;5.644;2023-04-25T05:48:26;12.10;99.90
45008;DHT22;30743;52.008;5.644;2023-04-25T05:50:52;12.20;99.90
45008;DHT22;30743;52.008;5.644;2023-04-25T05:53:18;12.20;99.90
45008;DHT22;30743;52.008;5.644;2023-04-25T05:55:44;12.30;99.90
45008;DHT22;30743;52.008;5.644;2023-04-25T05:58:10;12.40;99.90
45008;DHT22;30743;52.008;5.644;2023-04-25T06:00:35;12.40;99.90
45008;DHT22;30743;52.008;5.644;2023-04-25T06:03:01;12.40;99.90
45008;DHT22;30743;52.008;5.644;2023-04-25T06:05:27;12.40;99.90
45008;DHT22;30743;52.008;5.644;2023-04-25T06:07:52;12.50;99.90
45008;DHT22;30743;52.008;5.644;2023-04-25T06:10:18;12.40;99.90
45008;DHT22;30743;52.008;5.644;2023-04-25T06:12:43;12.50;99.90
45008;DHT22;30743;52.008;5.644;2023-04-25T06:15:09;12.50;99.90
45008;DHT22;30743;52.008;5.644;2023-04-25T06:17:35;12.60;99.90
45008;DHT22;30743;52.008;5.644;2023-04-25T06:20:01;12.70;99.90
45008;DHT22;30743;52.008;5.644;2023-04-25T06:22:27;12.90;99.90
45008;DHT22;30743;52.008;5.644;2023-04-25T06:24:52;13.00;99.90
45008;DHT22;30743;52.008;5.644;2023-04-25T06:27:18;13.00;99.90
45008;DHT22;30743;52.008;5.644;2023-04-25T06:29:43;13.10;99.90
45008;DHT22;30743;52.008;5.644;2023-04-25T06:32:09;13.10;99.90
45008;DHT22;30743;52.008;5.644;2023-04-25T06:34:35;13.30;99.90
45008;DHT22;30743;52.008;5.644;2023-04-25T06:37:00;13.50;99.90
45008;DHT22;30743;52.008;5.644;2023-04-25T06:39:26;13.50;99.90
45008;DHT22;30743;52.008;5.644;2023-04-25T06:41:51;13.60;99.90
45008;DHT22;30743;52.008;5.644;2023-04-25T06:44:17;13.60;99.90
45008;DHT22;30743;52.008;5.644;2023-04-25T06:46:42;13.50;99.90
45008;DHT22;30743;52.008;5.644;2023-04-25T06:49:08;13.70;99.90
45008;DHT22;30743;52.008;5.644;2023-04-25T06:51:33;13.60;99.90
45008;DHT22;30743;52.008;5.644;2023-04-25T06:53:59;13.60;99.90
45008;DHT22;30743;52.008;5.644;2023-04-25T06:56:25;13.50;99.90
45008;DHT22;30743;52.008;5.644;2023-04-25T06:58:50;13.50;99.90
45008;DHT22;30743;52.008;5.644;2023-04-25T07:01:16;13.70;99.90
45008;DHT22;30743;52.008;5.644;2023-04-25T07:03:41;13.90;99.90
45008;DHT22;30743;52.008;5.644;2023-04-25T07:06:07;13.90;99.90
45008;DHT22;30743;52.008;5.644;2023-04-25T07:08:32;14.00;99.90
45008;DHT22;30743;52.008;5.644;2023-04-25T07:10:59;13.90;99.90
45008;DHT22;30743;52.008;5.644;2023-04-25T07:13:24;14.00;99.90
45008;DHT22;30743;52.008;5.644;2023-04-25T07:15:50;14.30;99.90
45008;DHT22;30743;52.008;5.644;2023-04-25T07:18:16;14.60;99.90
45008;DHT22;30743;52.008;5.644;2023-04-25T07:20:41;14.70;99.90
45008;DHT22;30743;52.008;5.644;2023-04-25T07:23:07;14.70;99.90
45008;DHT22;30743;52.008;5.644;2023-04-25T07:25:32;14.70;99.90
45008;DHT22;30743;52.008;5.644;2023-04-25T07:27:58;14.90;99.90
45008;DHT22;30743;52.008;5.644;2023-04-25T07:30:23;14.90;99.90
45008;DHT22;30743;52.008;5.644;2023-04-25T07:32:50;14.70;99.90
45008;DHT22;30743;52.008;5.644;2023-04-25T07:35:16;14.60;99.90
45008;DHT22;30743;52.008;5.644;2023-04-25T07:37:42;14.70;99.90
45008;DHT22;30743;52.008;5.644;2023-04-25T07:40:08;14.80;99.90
45008;DHT22;30743;52.008;5.644;2023-04-25T07:42:35;14.80;99.90
45008;DHT22;30743;52.008;5.644;2023-04-25T07:45:01;14.90;99.90
45008;DHT22;30743;52.008;5.644;2023-04-25T07:47:26;14.90;99.90
45008;DHT22;30743;52.008;5.644;2023-04-25T07:49:52;15.10;99.90
45008;DHT22;30743;52.008;5.644;2023-04-25T07:52:18;14.90;99.90
45008;DHT22;30743;52.008;5.644;2023-04-25T07:54:43;14.90;99.90
45008;DHT22;30743;52.008;5.644;2023-04-25T07:57:09;15.00;99.90
45008;DHT22;30743;52.008;5.644;2023-04-25T07:59:34;15.00;99.90
45008;DHT22;30743;52.008;5.644;2023-04-25T08:02:01;14.90;99.90
45008;DHT22;30743;52.008;5.644;2023-04-25T08:04:26;14.80;99.90
45008;DHT22;30743;52.008;5.644;2023-04-25T08:06:52;14.70;99.90
45008;DHT22;30743;52.008;5.644;2023-04-25T08:09:19;14.70;99.90
45008;DHT22;30743;52.008;5.644;2023-04-25T08:11:45;14.70;99.90
45008;DHT22;30743;52.008;5.644;2023-04-25T08:14:12;14.60;99.90
45008;DHT22;30743;52.008;5.644;2023-04-25T08:16:37;14.80;99.90
45008;DHT22;30743;52.008;5.644;2023-04-25T08:19:03;14.80;99.90
45008;DHT22;30743;52.008;5.644;2023-04-25T08:21:28;15.00;99.90
45008;DHT22;30743;52.008;5.644;2023-04-25T08:23:54;15.00;99.90
45008;DHT22;30743;52.008;5.644;2023-04-25T08:26:20;15.10;99.90
45008;DHT22;30743;52.008;5.644;2023-04-25T08:28:46;15.10;99.90
45008;DHT22;30743;52.008;5.644;2023-04-25T08:31:12;15.30;99.90
45008;DHT22;30743;52.008;5.644;2023-04-25T08:33:37;15.10;99.90
45008;DHT22;30743;52.008;5.644;2023-04-25T08:36:03;15.10;99.90
45008;DHT22;30743;52.008;5.644;2023-04-25T08:38:28;15.30;99.90
45008;DHT22;30743;52.008;5.644;2023-04-25T08:40:54;15.50;99.90
45008;DHT22;30743;52.008;5.644;2023-04-25T08:43:21;15.70;99.90
45008;DHT22;30743;52.008;5.644;2023-04-25T08:45:48;15.70;99.90
45008;DHT22;30743;52.008;5.644;2023-04-25T08:48:15;15.80;99.90
45008;DHT22;30743;52.008;5.644;2023-04-25T08:50:53;16.10;99.90
45008;DHT22;30743;52.008;5.644;2023-04-25T08:53:26;16.40;99.90
45008;DHT22;30743;52.008;5.644;2023-04-25T08:55:54;16.70;99.90
45008;DHT22;30743;52.008;5.644;2023-04-25T08:58:19;16.20;99.90
45008;DHT22;30743;52.008;5.644;2023-04-25T09:00:49;15.40;99.90
45008;DHT22;30743;52.008;5.644;2023-04-25T09:03:15;14.70;99.90
45008;DHT22;30743;52.008;5.644;2023-04-25T09:05:41;14.20;99.90
45008;DHT22;30743;52.008;5.644;2023-04-25T09:08:07;14.20;99.90
45008;DHT22;30743;52.008;5.644;2023-04-25T09:10:33;14.00;99.90
45008;DHT22;30743;52.008;5.644;2023-04-25T09:15:48;14.20;99.90
45008;DHT22;30743;52.008;5.644;2023-04-25T09:18:22;14.30;99.90
45008;DHT22;30743;52.008;5.644;2023-04-25T09:20:49;14.50;99.90
45008;DHT22;30743;52.008;5.644;2023-04-25T09:23:15;14.60;99.90
45008;DHT22;30743;52.008;5.644;2023-04-25T09:25:40;15.00;99.90
45008;DHT22;30743;52.008;5.644;2023-04-25T09:28:08;15.20;99.90
45008;DHT22;30743;52.008;5.644;2023-04-25T09:30:35;15.40;99.90
45008;DHT22;30743;52.008;5.644;2023-04-25T09:33:09;15.20;99.90
45008;DHT22;30743;52.008;5.644;2023-04-25T09:35:43;15.70;99.90
45008;DHT22;30743;52.008;5.644;2023-04-25T09:38:10;15.80;99.90
45008;DHT22;30743;52.008;5.644;2023-04-25T09:40:42;16.10;99.90
45008;DHT22;30743;52.008;5.644;2023-04-25T09:43:26;16.20;99.90
45008;DHT22;30743;52.008;5.644;2023-04-25T09:45:54;15.70;99.90
45008;DHT22;30743;52.008;5.644;2023-04-25T09:48:22;15.80;99.90
45008;DHT22;30743;52.008;5.644;2023-04-25T09:51:08;16.00;99.90
45008;DHT22;30743;52.008;5.644;2023-04-25T09:53:36;16.30;99.90
45008;DHT22;30743;52.008;5.644;2023-04-25T09:56:04;16.70;99.90
45008;DHT22;30743;52.008;5.644;2023-04-25T09:58:34;17.10;99.90
45008;DHT22;30743;52.008;5.644;2023-04-25T10:01:02;17.50;99.90
45008;DHT22;30743;52.008;5.644;2023-04-25T10:03:32;17.60;99.90
45008;DHT22;30743;52.008;5.644;2023-04-25T10:06:03;17.80;99.90
45008;DHT22;30743;52.008;5.644;2023-04-25T10:08:32;17.00;98.90
45008;DHT22;30743;52.008;5.644;2023-04-25T10:11:03;16.20;99.90
45008;DHT22;30743;52.008;5.644;2023-04-25T10:13:30;16.30;99.90
45008;DHT22;30743;52.008;5.644;2023-04-25T10:16:04;16.10;99.90
45008;DHT22;30743;52.008;5.644;2023-04-25T10:18:31;16.10;99.90
45008;DHT22;30743;52.008;5.644;2023-04-25T10:21:02;15.70;99.90
45008;DHT22;30743;52.008;5.644;2023-04-25T10:23:30;15.60;99.90
45008;DHT22;30743;52.008;5.644;2023-04-25T10:25:57;15.40;99.90
45008;DHT22;30743;52.008;5.644;2023-04-25T10:28:22;15.10;99.90
45008;DHT22;30743;52.008;5.644;2023-04-25T10:31:06;15.10;99.90
45008;DHT22;30743;52.008;5.644;2023-04-25T10:33:34;15.00;99.90
45008;DHT22;30743;52.008;5.644;2023-04-25T10:36:09;15.00;99.90
45008;DHT22;30743;52.008;5.644;2023-04-25T10:38:36;14.90;99.90
45008;DHT22;30743;52.008;5.644;2023-04-25T10:41:04;15.10;99.90
45008;DHT22;30743;52.008;5.644;2023-04-25T10:43:43;15.50;99.90
45008;DHT22;30743;52.008;5.644;2023-04-25T10:46:23;15.90;99.90
45008;DHT22;30743;52.008;5.644;2023-04-25T10:51:20;16.70;99.90
45008;DHT22;30743;52.008;5.644;2023-04-25T10:53:56;16.90;99.90
45008;DHT22;30743;52.008;5.644;2023-04-25T10:56:23;17.00;99.90
45008;DHT22;30743;52.008;5.644;2023-04-25T10:58:50;17.30;99.90
45008;DHT22;30743;52.008;5.644;2023-04-25T11:01:20;17.60;99.90
45008;DHT22;30743;52.008;5.644;2023-04-25T11:03:45;17.60;99.90
45008;DHT22;30743;52.008;5.644;2023-04-25T11:09:13;18.20;99.90
45008;DHT22;30743;52.008;5.644;2023-04-25T11:11:39;18.40;97.90
45008;DHT22;30743;52.008;5.644;2023-04-25T11:14:05;18.50;97.90
45008;DHT22;30743;52.008;5.644;2023-04-25T11:16:30;18.70;98.20
45008;DHT22;30743;52.008;5.644;2023-04-25T11:18:58;18.70;97.90
45008;DHT22;30743;52.008;5.644;2023-04-25T11:21:25;19.00;98.00
45008;DHT22;30743;52.008;5.644;2023-04-25T11:23:51;18.90;96.70
45008;DHT22;30743;52.008;5.644;2023-04-25T11:26:19;19.10;97.70
45008;DHT22;30743;52.008;5.644;2023-04-25T11:28:45;19.30;97.70
45008;DHT22;30743;52.008;5.644;2023-04-25T11:31:11;19.50;96.70
45008;DHT22;30743;52.008;5.644;2023-04-25T11:33:36;19.50;96.70
45008;DHT22;30743;52.008;5.644;2023-04-25T11:36:02;19.70;96.20
45008;DHT22;30743;52.008;5.644;2023-04-25T11:38:28;19.90;95.40
45008;DHT22;30743;52.008;5.644;2023-04-25T11:40:54;20.00;96.10
45008;DHT22;30743;52.008;5.644;2023-04-25T11:43:21;20.10;96.40
45008;DHT22;30743;52.008;5.644;2023-04-25T11:45:51;20.30;98.40
45008;DHT22;30743;52.008;5.644;2023-04-25T11:48:18;20.60;95.80
45008;DHT22;30743;52.008;5.644;2023-04-25T11:50:44;20.30;96.40
45008;DHT22;30743;52.008;5.644;2023-04-25T11:53:09;18.90;97.10
45008;DHT22;30743;52.008;5.644;2023-04-25T11:55:36;17.60;97.80
45008;DHT22;30743;52.008;5.644;2023-04-25T11:58:03;16.70;99.10
45008;DHT22;30743;52.008;5.644;2023-04-25T12:00:29;15.80;99.70
45008;DHT22;30743;52.008;5.644;2023-04-25T12:02:56;15.00;99.90
45008;DHT22;30743;52.008;5.644;2023-04-25T12:05:29;14.30;99.90
45008;DHT22;30743;52.008;5.644;2023-04-25T12:07:56;14.20;99.90
45008;DHT22;30743;52.008;5.644;2023-04-25T12:10:24;13.90;99.90
45008;DHT22;30743;52.008;5.644;2023-04-25T12:12:49;13.90;99.90
45008;DHT22;30743;52.008;5.644;2023-04-25T12:15:23;13.80;99.90
45008;DHT22;30743;52.008;5.644;2023-04-25T12:17:51;14.00;99.90
45008;DHT22;30743;52.008;5.644;2023-04-25T12:20:18;14.40;99.90
45008;DHT22;30743;52.008;5.644;2023-04-25T12:22:47;14.80;99.90
45008;DHT22;30743;52.008;5.644;2023-04-25T12:28:15;15.10;99.90
45008;DHT22;30743;52.008;5.644;2023-04-25T12:33:19;15.50;99.90
45008;DHT22;30743;52.008;5.644;2023-04-25T12:35:44;15.60;99.30
45008;DHT22;30743;52.008;5.644;2023-04-25T12:38:10;15.90;99.50
45008;DHT22;30743;52.008;5.644;2023-04-25T12:40:36;16.00;99.80
45008;DHT22;30743;52.008;5.644;2023-04-25T12:43:01;16.10;99.90
45008;DHT22;30743;52.008;5.644;2023-04-25T12:45:27;16.50;99.90
45008;DHT22;30743;52.008;5.644;2023-04-25T12:47:52;16.70;99.90
45008;DHT22;30743;52.008;5.644;2023-04-25T12:50:18;17.20;99.90
45008;DHT22;30743;52.008;5.644;2023-04-25T12:52:43;17.60;99.80
45008;DHT22;30743;52.008;5.644;2023-04-25T12:55:08;17.90;99.00
45008;DHT22;30743;52.008;5.644;2023-04-25T12:57:34;18.00;98.80
45008;DHT22;30743;52.008;5.644;2023-04-25T13:00:00;17.90;98.30
45008;DHT22;30743;52.008;5.644;2023-04-25T13:02:25;17.50;98.10
45008;DHT22;30743;52.008;5.644;2023-04-25T13:04:51;17.30;97.80
45008;DHT22;30743;52.008;5.644;2023-04-25T13:07:16;17.30;97.50
45008;DHT22;30743;52.008;5.644;2023-04-25T13:09:42;17.20;97.10
45008;DHT22;30743;52.008;5.644;2023-04-25T13:12:07;17.20;97.00
45008;DHT22;30743;52.008;5.644;2023-04-25T13:14:33;17.30;98.40
45008;DHT22;30743;52.008;5.644;2023-04-25T13:16:59;17.70;99.20
45008;DHT22;30743;52.008;5.644;2023-04-25T13:19:25;17.70;98.80
45008;DHT22;30743;52.008;5.644;2023-04-25T13:21:51;17.60;98.10
45008;DHT22;30743;52.008;5.644;2023-04-25T13:24:16;18.00;98.10
45008;DHT22;30743;52.008;5.644;2023-04-25T13:26:42;18.00;97.00
45008;DHT22;30743;52.008;5.644;2023-04-25T13:29:08;18.00;96.60
45008;DHT22;30743;52.008;5.644;2023-04-25T13:31:34;18.50;97.80
45008;DHT22;30743;52.008;5.644;2023-04-25T13:34:00;18.70;98.00
45008;DHT22;30743;52.008;5.644;2023-04-25T13:36:25;18.90;97.10
45008;DHT22;30743;52.008;5.644;2023-04-25T13:38:51;19.20;96.90
45008;DHT22;30743;52.008;5.644;2023-04-25T13:41:16;19.00;95.10
45008;DHT22;30743;52.008;5.644;2023-04-25T13:43:44;19.10;96.20
45008;DHT22;30743;52.008;5.644;2023-04-25T13:46:10;18.50;94.20
45008;DHT22;30743;52.008;5.644;2023-04-25T13:48:38;17.50;94.60
45008;DHT22;30743;52.008;5.644;2023-04-25T13:51:03;17.60;97.60
45008;DHT22;30743;52.008;5.644;2023-04-25T13:53:29;17.80;95.10
45008;DHT22;30743;52.008;5.644;2023-04-25T13:55:54;20.50;96.90
45008;DHT22;30743;52.008;5.644;2023-04-25T13:58:20;17.20;98.40
45008;DHT22;30743;52.008;5.644;2023-04-25T14:00:46;16.90;98.20
45008;DHT22;30743;52.008;5.644;2023-04-25T14:03:12;16.60;98.10
45008;DHT22;30743;52.008;5.644;2023-04-25T14:05:37;16.10;98.10
45008;DHT22;30743;52.008;5.644;2023-04-25T14:08:04;15.80;98.80
45008;DHT22;30743;52.008;5.644;2023-04-25T14:10:30;15.50;99.80
45008;DHT22;30743;52.008;5.644;2023-04-25T14:12:56;15.70;99.90
45008;DHT22;30743;52.008;5.644;2023-04-25T14:15:22;15.90;99.60
45008;DHT22;30743;52.008;5.644;2023-04-25T14:17:47;15.80;98.10
45008;DHT22;30743;52.008;5.644;2023-04-25T14:20:13;15.60;98.40
45008;DHT22;30743;52.008;5.644;2023-04-25T14:22:39;16.00;98.30
45008;DHT22;30743;52.008;5.644;2023-04-25T14:25:08;16.30;98.40
45008;DHT22;30743;52.008;5.644;2023-04-25T14:27:34;16.50;97.80
45008;DHT22;30743;52.008;5.644;2023-04-25T14:29:59;16.60;97.30
45008;DHT22;30743;52.008;5.644;2023-04-25T14:32:25;16.70;97.90
45008;DHT22;30743;52.008;5.644;2023-04-25T14:34:51;17.00;98.90
45008;DHT22;30743;52.008;5.644;2023-04-25T14:37:16;16.70;96.80
45008;DHT22;30743;52.008;5.644;2023-04-25T14:39:42;16.60;97.20
45008;DHT22;30743;52.008;5.644;2023-04-25T14:42:07;16.00;98.40
45008;DHT22;30743;52.008;5.644;2023-04-25T14:44:33;15.80;99.30
45008;DHT22;30743;52.008;5.644;2023-04-25T14:46:58;15.80;99.40
45008;DHT22;30743;52.008;5.644;2023-04-25T14:49:24;15.80;98.80
45008;DHT22;30743;52.008;5.644;2023-04-25T14:51:50;15.80;96.80
45008;DHT22;30743;52.008;5.644;2023-04-25T14:54:16;15.70;96.50
45008;DHT22;30743;52.008;5.644;2023-04-25T14:56:42;15.80;96.60
45008;DHT22;30743;52.008;5.644;2023-04-25T14:59:07;16.00;98.20
45008;DHT22;30743;52.008;5.644;2023-04-25T15:01:33;16.30;98.00
45008;DHT22;30743;52.008;5.644;2023-04-25T15:03:59;15.50;97.80
45008;DHT22;30743;52.008;5.644;2023-04-25T15:06:24;17.00;98.50
45008;DHT22;30743;52.008;5.644;2023-04-25T15:08:53;17.00;97.50
45008;DHT22;30743;52.008;5.644;2023-04-25T15:11:19;17.30;98.30
45008;DHT22;30743;52.008;5.644;2023-04-25T15:13:45;16.80;94.70
45008;DHT22;30743;52.008;5.644;2023-04-25T15:16:11;16.20;96.70
45008;DHT22;30743;52.008;5.644;2023-04-25T15:18:36;15.60;97.20
45008;DHT22;30743;52.008;5.644;2023-04-25T15:21:02;15.50;99.20
45008;DHT22;30743;52.008;5.644;2023-04-25T15:23:28;15.30;98.50
45008;DHT22;30743;52.008;5.644;2023-04-25T15:25:54;15.30;99.10
45008;DHT22;30743;52.008;5.644;2023-04-25T15:28:19;15.20;99.30
45008;DHT22;30743;52.008;5.644;2023-04-25T15:30:46;15.10;99.60
45008;DHT22;30743;52.008;5.644;2023-04-25T15:33:12;14.80;99.30
45008;DHT22;30743;52.008;5.644;2023-04-25T15:35:38;14.50;99.90
45008;DHT22;30743;52.008;5.644;2023-04-25T15:38:04;14.40;99.90
45008;DHT22;30743;52.008;5.644;2023-04-25T15:40:31;14.70;99.50